createdAt,value
2018-11-11T00:00:23.467Z,14.93
2018-11-11T00:01:28.344Z,14.92
2018-11-11T00:02:32.370Z,14.91
2018-11-11T00:03:36.457Z,14.90
2018-11-11T00:04:40.496Z,14.88
2018-11-11T00:05:44.573Z,14.86
2018-11-11T00:06:48.695Z,14.86
2018-11-11T00:07:52.799Z,14.86
2018-11-11T00:08:56.904Z,14.86
2018-11-11T00:10:00.951Z,14.84
2018-11-11T00:11:05.504Z,14.82
2018-11-11T00:12:09.843Z,14.80
2018-11-11T00:13:14.310Z,14.78
2018-11-11T00:14:18.443Z,14.76
2018-11-11T00:15:22.535Z,14.74
2018-11-11T00:16:26.602Z,14.73
2018-11-11T00:17:30.758Z,14.71
2018-11-11T00:18:34.960Z,14.70
2018-11-11T00:19:39.073Z,14.73
2018-11-11T00:20:43.203Z,14.74
2018-11-11T00:21:47.349Z,14.76
2018-11-11T00:22:51.362Z,14.76
2018-11-11T00:23:55.789Z,14.76
2018-11-11T00:25:00.166Z,14.77
2018-11-11T00:26:04.750Z,14.78
2018-11-11T00:27:09.229Z,14.78
2018-11-11T00:28:14.284Z,14.78
2018-11-11T00:29:18.421Z,14.79
2018-11-11T00:30:22.675Z,14.79
2018-11-11T00:31:26.779Z,14.78
2018-11-11T00:32:30.835Z,14.79
2018-11-11T00:33:34.906Z,14.78
2018-11-11T00:34:39.023Z,14.78
2018-11-11T00:35:43.107Z,14.75
2018-11-11T00:36:47.332Z,14.76
2018-11-11T00:37:51.544Z,14.74
2018-11-11T00:38:55.587Z,14.73
2018-11-11T00:39:59.598Z,14.74
2018-11-11T00:41:03.749Z,14.75
2018-11-11T00:42:07.871Z,14.74
2018-11-11T00:43:12.042Z,14.74
2018-11-11T00:44:16.075Z,14.75
2018-11-11T00:45:20.283Z,14.75
2018-11-11T00:46:24.479Z,14.76
2018-11-11T00:47:28.583Z,14.77
2018-11-11T00:48:33.401Z,14.77
2018-11-11T00:49:37.431Z,14.78
2018-11-11T00:50:41.463Z,14.78
2018-11-11T00:51:45.518Z,14.78
2018-11-11T00:52:49.660Z,14.78
2018-11-11T00:53:53.759Z,14.79
2018-11-11T00:54:57.797Z,14.78
2018-11-11T00:56:01.867Z,14.79
2018-11-11T00:57:06.700Z,14.80
2018-11-11T00:58:10.760Z,14.80
2018-11-11T00:59:14.932Z,14.80
2018-11-11T01:00:19.540Z,14.79
2018-11-11T01:01:23.913Z,14.79
2018-11-11T01:02:28.019Z,14.78
2018-11-11T01:03:32.076Z,14.77
2018-11-11T01:04:36.194Z,14.76
2018-11-11T01:05:40.361Z,14.76
2018-11-11T01:06:44.454Z,14.77
2018-11-11T01:07:48.528Z,14.78
2018-11-11T01:08:52.629Z,14.80
2018-11-11T01:09:56.779Z,14.80
2018-11-11T01:11:00.896Z,14.82
2018-11-11T01:12:05.036Z,14.83
2018-11-11T01:13:09.191Z,14.84
2018-11-11T01:14:13.448Z,14.86
2018-11-11T01:15:17.932Z,14.88
2018-11-11T01:16:22.053Z,14.89
2018-11-11T01:17:26.118Z,14.91
2018-11-11T01:18:30.235Z,14.92
2018-11-11T01:19:34.263Z,14.93
2018-11-11T01:20:38.406Z,14.95
2018-11-11T01:21:42.420Z,14.96
2018-11-11T01:22:47.022Z,14.97
2018-11-11T01:23:51.148Z,14.97
2018-11-11T01:24:55.295Z,14.97
2018-11-11T01:25:59.458Z,14.98
2018-11-11T01:27:03.572Z,14.99
2018-11-11T01:28:07.585Z,15.00
2018-11-11T01:29:11.671Z,15.02
2018-11-11T01:30:15.893Z,15.01
2018-11-11T01:31:20.019Z,15.02
2018-11-11T01:32:24.152Z,15.04
2018-11-11T01:33:28.801Z,15.02
2018-11-11T01:34:32.880Z,15.01
2018-11-11T01:35:37.122Z,14.99
2018-11-11T01:36:41.238Z,14.99
2018-11-11T01:37:46.256Z,14.99
2018-11-11T01:38:50.388Z,14.99
2018-11-11T01:39:54.470Z,14.98
2018-11-11T01:40:58.569Z,14.97
2018-11-11T01:42:02.690Z,14.97
2018-11-11T01:43:06.894Z,14.95
2018-11-11T01:44:10.975Z,14.92
2018-11-11T01:45:17.471Z,14.91
2018-11-11T01:46:21.544Z,14.88
2018-11-11T01:47:25.679Z,14.85
2018-11-11T01:48:30.135Z,14.83
2018-11-11T01:49:34.642Z,14.81
2018-11-11T01:50:38.695Z,14.80
2018-11-11T01:51:42.775Z,14.77
2018-11-11T01:52:47.043Z,14.75
2018-11-11T01:53:51.108Z,14.73
2018-11-11T01:54:55.297Z,14.71
2018-11-11T01:55:59.471Z,14.69
2018-11-11T01:57:03.563Z,14.68
2018-11-11T01:58:07.702Z,14.67
2018-11-11T01:59:12.305Z,14.66
2018-11-11T02:00:17.659Z,14.64
2018-11-11T02:01:21.911Z,14.64
2018-11-11T02:02:26.049Z,14.61
2018-11-11T02:03:30.108Z,14.61
2018-11-11T02:04:34.275Z,14.61
2018-11-11T02:05:38.410Z,14.60
2018-11-11T02:06:42.563Z,14.60
2018-11-11T02:07:47.204Z,14.61
2018-11-11T02:08:51.370Z,14.62
2018-11-11T02:09:55.525Z,14.62
2018-11-11T02:11:06.279Z,14.63
2018-11-11T02:12:11.375Z,14.64
2018-11-11T02:13:15.536Z,14.66
2018-11-11T02:14:19.837Z,14.66
2018-11-11T02:15:23.893Z,14.67
2018-11-11T02:16:27.917Z,14.66
2018-11-11T02:17:32.099Z,14.67
2018-11-11T02:18:36.125Z,14.66
2018-11-11T02:19:40.208Z,14.66
2018-11-11T02:20:44.405Z,14.66
2018-11-11T02:21:48.585Z,14.66
2018-11-11T02:22:52.752Z,14.66
2018-11-11T02:23:56.886Z,14.65
2018-11-11T02:25:01.052Z,14.65
2018-11-11T02:26:05.694Z,14.65
2018-11-11T02:27:09.865Z,14.65
2018-11-11T02:28:13.936Z,14.64
2018-11-11T02:29:18.122Z,14.64
2018-11-11T02:30:22.353Z,14.66
2018-11-11T02:31:26.458Z,14.66
2018-11-11T02:32:30.556Z,14.66
2018-11-11T02:33:34.866Z,14.66
2018-11-11T02:34:38.921Z,14.65
2018-11-11T02:35:42.975Z,14.65
2018-11-11T02:36:47.129Z,14.67
2018-11-11T02:37:51.143Z,14.66
2018-11-11T02:38:55.303Z,14.68
2018-11-11T02:39:59.591Z,14.68
2018-11-11T02:41:03.807Z,14.69
2018-11-11T02:42:07.865Z,14.69
2018-11-11T02:43:12.038Z,14.69
2018-11-11T02:44:16.102Z,14.71
2018-11-11T02:45:20.918Z,14.71
2018-11-11T02:46:24.971Z,14.74
2018-11-11T02:47:29.122Z,14.74
2018-11-11T02:48:33.232Z,14.76
2018-11-11T02:49:37.404Z,14.77
2018-11-11T02:50:43.634Z,14.77
2018-11-11T02:51:47.684Z,14.79
2018-11-11T02:52:51.788Z,14.79
2018-11-11T02:53:55.904Z,14.81
2018-11-11T02:55:00.151Z,14.80
2018-11-11T02:56:04.225Z,14.80
2018-11-11T02:57:08.435Z,14.81
2018-11-11T02:58:12.684Z,14.81
2018-11-11T02:59:16.813Z,14.84
2018-11-11T03:00:21.699Z,14.84
2018-11-11T03:01:25.764Z,14.85
2018-11-11T03:02:30.014Z,14.85
2018-11-11T03:03:34.103Z,14.87
2018-11-11T03:04:38.602Z,14.86
2018-11-11T03:05:43.124Z,14.86
2018-11-11T03:06:47.233Z,14.86
2018-11-11T03:07:51.375Z,14.86
2018-11-11T03:08:55.532Z,14.86
2018-11-11T03:09:59.742Z,14.87
2018-11-11T03:11:03.841Z,14.87
2018-11-11T03:12:07.856Z,14.86
2018-11-11T03:13:12.006Z,14.86
2018-11-11T03:14:16.095Z,14.85
2018-11-11T03:15:20.506Z,14.84
2018-11-11T03:16:24.862Z,14.83
2018-11-11T03:17:29.043Z,14.83
2018-11-11T03:18:33.058Z,14.82
2018-11-11T03:19:37.119Z,14.82
2018-11-11T03:20:41.224Z,14.80
2018-11-11T03:21:45.324Z,14.80
2018-11-11T03:22:50.042Z,14.79
2018-11-11T03:23:54.194Z,14.78
2018-11-11T03:24:58.247Z,14.78
2018-11-11T03:26:02.468Z,14.78
2018-11-11T03:27:06.907Z,14.79
2018-11-11T03:28:11.019Z,14.78
2018-11-11T03:29:15.071Z,14.78
2018-11-11T03:30:19.603Z,14.76
2018-11-11T03:31:24.236Z,14.76
2018-11-11T03:32:28.436Z,14.75
2018-11-11T03:33:32.512Z,14.76
2018-11-11T03:34:36.588Z,14.75
2018-11-11T03:35:40.727Z,14.76
2018-11-11T03:36:44.894Z,14.76
2018-11-11T03:37:48.948Z,14.76
2018-11-11T03:38:53.007Z,14.76
2018-11-11T03:39:57.116Z,14.77
2018-11-11T03:41:01.434Z,14.78
2018-11-11T03:42:05.723Z,14.79
2018-11-11T03:43:09.834Z,14.80
2018-11-11T03:44:13.950Z,14.81
2018-11-11T03:45:19.241Z,14.81
2018-11-11T03:46:23.514Z,14.81
2018-11-11T03:47:27.863Z,14.80
2018-11-11T03:48:31.963Z,14.80
2018-11-11T03:49:39.228Z,14.78
2018-11-11T03:50:43.412Z,14.75
2018-11-11T03:51:47.506Z,14.73
2018-11-11T03:52:51.602Z,14.69
2018-11-11T03:53:55.786Z,14.68
2018-11-11T03:54:59.967Z,14.68
2018-11-11T03:56:04.136Z,14.68
2018-11-11T03:57:08.228Z,14.69
2018-11-11T03:58:12.335Z,14.69
2018-11-11T03:59:16.523Z,14.71
2018-11-11T04:00:20.611Z,14.73
2018-11-11T04:01:24.828Z,14.75
2018-11-11T04:02:28.922Z,14.76
2018-11-11T04:03:33.036Z,14.75
2018-11-11T04:04:37.280Z,14.76
2018-11-11T04:05:41.402Z,14.77
2018-11-11T04:06:45.676Z,14.78
2018-11-11T04:07:49.754Z,14.80
2018-11-11T04:08:53.908Z,14.81
2018-11-11T04:09:58.111Z,14.81
2018-11-11T04:11:02.205Z,14.81
2018-11-11T04:12:06.292Z,14.82
2018-11-11T04:13:10.570Z,14.82
2018-11-11T04:14:14.834Z,14.82
2018-11-11T04:15:20.079Z,14.82
2018-11-11T04:16:24.478Z,14.82
2018-11-11T04:17:28.728Z,14.83
2018-11-11T04:18:32.920Z,14.82
2018-11-11T04:19:37.030Z,14.83
2018-11-11T04:20:41.196Z,14.83
2018-11-11T04:21:45.365Z,14.84
2018-11-11T04:22:49.416Z,14.84
2018-11-11T04:23:54.083Z,14.84
2018-11-11T04:24:58.262Z,14.84
2018-11-11T04:26:02.307Z,14.85
2018-11-11T04:27:06.403Z,14.85
2018-11-11T04:28:10.533Z,14.85
2018-11-11T04:29:14.735Z,14.85
2018-11-11T04:30:19.204Z,14.87
2018-11-11T04:31:23.312Z,14.86
2018-11-11T04:32:27.462Z,14.89
2018-11-11T04:33:31.724Z,14.89
2018-11-11T04:34:35.846Z,14.88
2018-11-11T04:35:39.947Z,14.88
2018-11-11T04:36:44.032Z,14.88
2018-11-11T04:37:48.119Z,14.88
2018-11-11T04:38:52.247Z,14.89
2018-11-11T04:39:56.330Z,14.89
2018-11-11T04:41:00.444Z,14.90
2018-11-11T04:42:04.589Z,14.90
2018-11-11T04:43:08.716Z,14.90
2018-11-11T04:44:13.388Z,14.90
2018-11-11T04:45:17.501Z,14.90
2018-11-11T04:46:21.606Z,14.91
2018-11-11T04:47:25.792Z,14.91
2018-11-11T04:48:29.868Z,14.91
2018-11-11T04:49:34.069Z,14.92
2018-11-11T04:50:38.139Z,14.92
2018-11-11T04:51:42.200Z,14.92
2018-11-11T04:52:46.812Z,14.91
2018-11-11T04:53:50.874Z,14.90
2018-11-11T04:54:54.958Z,14.91
2018-11-11T04:55:59.020Z,14.90
2018-11-11T04:57:03.118Z,14.90
2018-11-11T04:58:07.350Z,14.90
2018-11-11T04:59:11.597Z,14.91
2018-11-11T05:00:15.840Z,14.90
2018-11-11T05:01:20.025Z,14.91
2018-11-11T05:02:24.044Z,14.91
2018-11-11T05:03:28.196Z,14.90
2018-11-11T05:04:32.333Z,14.90
2018-11-11T05:05:36.368Z,14.90
2018-11-11T05:06:40.436Z,14.90
2018-11-11T05:07:44.521Z,14.90
2018-11-11T05:08:48.662Z,14.91
2018-11-11T05:09:52.668Z,14.89
2018-11-11T05:10:56.787Z,14.91
2018-11-11T05:12:00.888Z,14.90
2018-11-11T05:13:05.216Z,14.90
2018-11-11T05:14:09.895Z,14.88
2018-11-11T05:15:14.588Z,14.89
2018-11-11T05:16:18.657Z,14.90
2018-11-11T05:17:22.822Z,14.90
2018-11-11T05:18:26.888Z,14.90
2018-11-11T05:19:31.001Z,14.90
2018-11-11T05:20:35.108Z,14.90
2018-11-11T05:21:39.170Z,14.90
2018-11-11T05:22:43.643Z,14.92
2018-11-11T05:23:47.728Z,14.92
2018-11-11T05:24:51.792Z,14.92
2018-11-11T05:25:55.912Z,14.92
2018-11-11T05:26:59.981Z,14.91
2018-11-11T05:28:04.263Z,14.90
2018-11-11T05:29:08.319Z,14.89
2018-11-11T05:30:13.406Z,14.89
2018-11-11T05:31:17.471Z,14.88
2018-11-11T05:32:21.624Z,14.88
2018-11-11T05:33:25.689Z,14.88
2018-11-11T05:34:29.773Z,14.88
2018-11-11T05:35:33.930Z,14.88
2018-11-11T05:36:38.044Z,14.88
2018-11-11T05:37:42.589Z,14.90
2018-11-11T05:38:46.651Z,14.89
2018-11-11T05:39:50.716Z,14.89
2018-11-11T05:40:54.837Z,14.89
2018-11-11T05:41:58.903Z,14.87
2018-11-11T05:43:03.052Z,14.88
2018-11-11T05:44:07.679Z,14.88
2018-11-11T05:45:12.707Z,14.88
2018-11-11T05:46:16.813Z,14.88
2018-11-11T05:47:20.936Z,14.88
2018-11-11T05:48:25.069Z,14.89
2018-11-11T05:49:29.141Z,14.87
2018-11-11T05:50:33.265Z,14.87
2018-11-11T05:51:37.590Z,14.88
2018-11-11T05:52:42.341Z,14.87
2018-11-11T05:53:46.416Z,14.88
2018-11-11T05:54:50.487Z,14.85
2018-11-11T05:55:54.544Z,14.85
2018-11-11T05:56:58.650Z,14.85
2018-11-11T05:58:02.764Z,14.83
2018-11-11T05:59:06.935Z,14.85
2018-11-11T06:00:12.691Z,14.84
2018-11-11T06:01:17.280Z,14.84
2018-11-11T06:02:21.463Z,14.84
2018-11-11T06:03:25.524Z,14.86
2018-11-11T06:04:29.636Z,14.84
2018-11-11T06:05:33.773Z,14.84
2018-11-11T06:06:37.959Z,14.85
2018-11-11T06:07:43.244Z,14.85
2018-11-11T06:08:47.354Z,14.84
2018-11-11T06:09:51.517Z,14.85
2018-11-11T06:10:55.518Z,14.84
2018-11-11T06:11:59.808Z,14.83
2018-11-11T06:13:03.868Z,14.84
2018-11-11T06:14:08.287Z,14.84
2018-11-11T06:15:13.252Z,14.84
2018-11-11T06:16:17.420Z,14.83
2018-11-11T06:17:21.565Z,14.83
2018-11-11T06:18:25.704Z,14.80
2018-11-11T06:19:29.795Z,14.79
2018-11-11T06:20:33.858Z,14.80
2018-11-11T06:21:37.946Z,14.78
2018-11-11T06:22:42.180Z,14.76
2018-11-11T06:23:46.204Z,14.76
2018-11-11T06:24:56.672Z,14.76
2018-11-11T06:26:00.821Z,14.74
2018-11-11T06:27:05.225Z,14.74
2018-11-11T06:28:10.536Z,14.72
2018-11-11T06:29:14.713Z,14.71
2018-11-11T06:30:19.547Z,14.72
2018-11-11T06:31:23.824Z,14.71
2018-11-11T06:32:28.247Z,14.71
2018-11-11T06:33:32.294Z,14.71
2018-11-11T06:34:36.548Z,14.71
2018-11-11T06:35:41.035Z,14.74
2018-11-11T06:36:45.078Z,14.74
2018-11-11T06:37:49.240Z,14.75
2018-11-11T06:38:53.300Z,14.75
2018-11-11T06:39:57.564Z,14.76
2018-11-11T06:41:01.641Z,14.78
2018-11-11T06:42:05.689Z,14.77
2018-11-11T06:43:10.053Z,14.78
2018-11-11T06:44:14.203Z,14.78
2018-11-11T06:45:18.417Z,14.77
2018-11-11T06:46:22.467Z,14.79
2018-11-11T06:47:26.642Z,14.80
2018-11-11T06:48:30.729Z,14.78
2018-11-11T06:49:34.854Z,14.78
2018-11-11T06:50:38.994Z,14.77
2018-11-11T06:51:43.308Z,14.76
2018-11-11T06:52:47.444Z,14.75
2018-11-11T06:53:51.594Z,14.74
2018-11-11T06:54:55.681Z,14.73
2018-11-11T06:55:59.856Z,14.71
2018-11-11T06:57:04.006Z,14.71
2018-11-11T06:58:08.201Z,14.71
2018-11-11T06:59:12.526Z,14.69
2018-11-11T07:00:16.889Z,14.69
2018-11-11T07:01:21.041Z,14.69
2018-11-11T07:02:31.841Z,14.68
2018-11-11T07:03:44.593Z,14.69
2018-11-11T07:04:48.687Z,14.69
2018-11-11T07:05:52.809Z,14.71
2018-11-11T07:06:57.038Z,14.71
2018-11-11T07:08:01.119Z,14.72
2018-11-11T07:09:06.863Z,14.73
2018-11-11T07:10:11.007Z,14.74
2018-11-11T07:11:15.971Z,14.75
2018-11-11T07:12:20.355Z,14.76
2018-11-11T07:13:24.622Z,14.77
2018-11-11T07:14:28.700Z,14.78
2018-11-11T07:15:32.774Z,14.79
2018-11-11T07:16:36.927Z,14.78
2018-11-11T07:17:41.123Z,14.79
2018-11-11T07:18:46.069Z,14.79
2018-11-11T07:19:50.103Z,14.79
2018-11-11T07:20:54.199Z,14.78
2018-11-11T07:21:58.311Z,14.77
2018-11-11T07:23:02.500Z,14.75
2018-11-11T07:24:06.591Z,14.75
2018-11-11T07:25:10.610Z,14.74
2018-11-11T07:26:14.753Z,14.75
2018-11-11T07:27:19.079Z,14.74
2018-11-11T07:28:23.439Z,14.73
2018-11-11T07:29:27.744Z,14.71
2018-11-11T07:30:31.828Z,14.71
2018-11-11T07:31:35.956Z,14.70
2018-11-11T07:32:40.019Z,14.69
2018-11-11T07:33:44.106Z,14.70
2018-11-11T07:34:48.240Z,14.72
2018-11-11T07:35:52.428Z,14.72
2018-11-11T07:36:56.472Z,14.75
2018-11-11T07:38:02.035Z,14.75
2018-11-11T07:39:09.855Z,14.76
2018-11-11T07:40:15.259Z,14.76
2018-11-11T07:41:19.412Z,14.78
2018-11-11T07:42:23.546Z,14.80
2018-11-11T07:43:27.594Z,14.82
2018-11-11T07:44:31.669Z,14.84
2018-11-11T07:45:35.834Z,14.85
2018-11-11T07:46:40.412Z,14.86
2018-11-11T07:47:44.599Z,14.86
2018-11-11T07:48:48.912Z,14.86
2018-11-11T07:49:52.944Z,14.87
2018-11-11T07:50:57.030Z,14.86
2018-11-11T07:52:01.192Z,14.85
2018-11-11T07:53:05.562Z,14.87
2018-11-11T07:54:09.671Z,14.85
2018-11-11T07:55:13.973Z,14.87
2018-11-11T07:56:17.980Z,14.88
2018-11-11T07:57:22.189Z,14.88
2018-11-11T07:58:26.204Z,14.88
2018-11-11T07:59:30.287Z,14.87
2018-11-11T08:00:34.394Z,14.87
2018-11-11T08:01:38.533Z,14.88
2018-11-11T08:02:43.009Z,14.87
2018-11-11T08:03:47.114Z,14.88
2018-11-11T08:04:51.231Z,14.88
2018-11-11T08:05:56.449Z,14.88
2018-11-11T08:07:00.653Z,14.90
2018-11-11T08:08:05.076Z,14.90
2018-11-11T08:09:11.794Z,14.91
2018-11-11T08:10:27.190Z,14.92
2018-11-11T08:11:42.825Z,14.95
2018-11-11T08:12:46.923Z,14.95
2018-11-11T08:13:51.121Z,14.97
2018-11-11T08:14:55.191Z,14.96
2018-11-11T08:15:59.263Z,14.96
2018-11-11T08:17:03.429Z,14.97
2018-11-11T08:18:07.475Z,14.96
2018-11-11T08:19:11.541Z,14.96
2018-11-11T08:20:15.858Z,14.97
2018-11-11T08:21:20.081Z,14.97
2018-11-11T08:22:24.393Z,14.98
2018-11-11T08:23:28.868Z,14.99
2018-11-11T08:24:40.062Z,14.98
2018-11-11T08:25:44.823Z,14.99
2018-11-11T08:26:49.549Z,15.00
2018-11-11T08:27:53.571Z,15.00
2018-11-11T08:28:59.113Z,15.00
2018-11-11T08:30:03.742Z,15.02
2018-11-11T08:31:07.983Z,15.01
2018-11-11T08:32:12.329Z,15.01
2018-11-11T08:33:16.406Z,15.03
2018-11-11T08:34:20.428Z,15.04
2018-11-11T08:35:24.667Z,15.04
2018-11-11T08:36:28.759Z,15.04
2018-11-11T08:37:32.851Z,15.03
2018-11-11T08:38:36.924Z,15.04
2018-11-11T08:39:41.224Z,15.05
2018-11-11T08:40:45.522Z,15.06
2018-11-11T08:41:50.705Z,15.07
2018-11-11T08:42:55.595Z,15.08
2018-11-11T08:43:59.631Z,15.08
2018-11-11T08:45:06.004Z,15.10
2018-11-11T08:46:10.444Z,15.10
2018-11-11T08:47:14.807Z,15.12
2018-11-11T08:48:18.991Z,15.15
2018-11-11T08:49:23.160Z,15.16
2018-11-11T08:50:28.713Z,15.17
2018-11-11T08:51:36.565Z,15.20
2018-11-11T08:52:40.992Z,15.22
2018-11-11T08:53:45.121Z,15.22
2018-11-11T08:54:51.476Z,15.23
2018-11-11T08:55:55.668Z,15.21
2018-11-11T08:56:59.748Z,15.22
2018-11-11T08:58:07.363Z,15.20
2018-11-11T08:59:12.200Z,15.21
2018-11-11T09:00:16.370Z,15.21
2018-11-11T09:01:21.837Z,15.20
2018-11-11T09:02:25.985Z,15.21
2018-11-11T09:03:30.337Z,15.19
2018-11-11T09:04:34.502Z,15.20
2018-11-11T09:05:40.020Z,15.22
2018-11-11T09:06:46.249Z,15.23
2018-11-11T09:07:50.310Z,15.24
2018-11-11T09:08:54.440Z,15.27
2018-11-11T09:09:58.523Z,15.26
2018-11-11T09:11:02.849Z,15.27
2018-11-11T09:12:07.067Z,15.28
2018-11-11T09:13:12.913Z,15.28
2018-11-11T09:14:17.470Z,15.26
2018-11-11T09:15:21.533Z,15.25
2018-11-11T09:16:27.740Z,15.23
2018-11-11T09:17:32.133Z,15.23
2018-11-11T09:18:36.274Z,15.22
2018-11-11T09:19:40.721Z,15.21
2018-11-11T09:20:44.884Z,15.22
2018-11-11T09:21:49.103Z,15.23
2018-11-11T09:22:53.740Z,15.25
2018-11-11T09:23:57.872Z,15.28
2018-11-11T09:25:01.980Z,15.30
2018-11-11T09:26:06.130Z,15.32
2018-11-11T09:27:10.282Z,15.35
2018-11-11T09:28:14.431Z,15.36
2018-11-11T09:29:18.691Z,15.39
2018-11-11T09:30:22.792Z,15.40
2018-11-11T09:31:26.796Z,15.43
2018-11-11T09:32:31.103Z,15.47
2018-11-11T09:33:35.191Z,15.51
2018-11-11T09:34:39.314Z,15.53
2018-11-11T09:35:43.426Z,15.54
2018-11-11T09:36:47.475Z,15.55
2018-11-11T09:37:51.657Z,15.55
2018-11-11T09:38:55.701Z,15.55
2018-11-11T09:40:06.165Z,15.56
2018-11-11T09:41:16.629Z,15.54
2018-11-11T09:42:21.467Z,15.54
2018-11-11T09:43:25.790Z,15.54
2018-11-11T09:44:29.939Z,15.54
2018-11-11T09:45:34.215Z,15.57
2018-11-11T09:46:38.278Z,15.58
2018-11-11T09:47:42.735Z,15.60
2018-11-11T09:48:46.829Z,15.64
2018-11-11T09:49:50.933Z,15.67
2018-11-11T09:50:55.069Z,15.71
2018-11-11T09:51:59.221Z,15.75
2018-11-11T09:53:03.395Z,15.78
2018-11-11T09:54:08.138Z,15.80
2018-11-11T09:55:13.030Z,15.83
2018-11-11T09:56:17.135Z,15.83
2018-11-11T09:57:21.239Z,15.85
2018-11-11T09:58:25.397Z,15.87
2018-11-11T09:59:31.218Z,15.88
2018-11-11T10:00:35.324Z,15.91
2018-11-11T10:01:39.488Z,15.94
2018-11-11T10:02:46.019Z,15.98
2018-11-11T10:03:54.263Z,15.99
2018-11-11T10:05:03.638Z,16.01
2018-11-11T10:06:13.675Z,16.05
2018-11-11T10:07:19.999Z,16.07
2018-11-11T10:08:27.996Z,16.09
2018-11-11T10:11:44.988Z,16.09
2018-11-11T10:12:56.808Z,15.98
2018-11-11T10:14:13.273Z,15.92
2018-11-11T10:15:23.324Z,15.89
2018-11-11T10:18:36.538Z,15.87
2018-11-11T10:19:48.005Z,15.85
2018-11-11T10:20:59.364Z,15.84
2018-11-11T10:22:10.894Z,15.86
2018-11-11T10:23:22.764Z,15.87
2018-11-11T10:24:35.234Z,15.89
2018-11-11T10:25:53.055Z,15.91
2018-11-11T10:27:00.885Z,15.94
2018-11-11T10:28:18.308Z,15.97
2018-11-11T10:29:30.852Z,16.02
2018-11-11T10:30:42.770Z,16.06
2018-11-11T10:32:05.426Z,16.11
2018-11-11T10:33:24.467Z,16.13
2018-11-11T10:34:32.781Z,16.18
2018-11-11T10:35:42.755Z,16.21
2018-11-11T10:36:50.287Z,16.26
2018-11-11T10:38:03.972Z,16.32
2018-11-11T10:39:43.601Z,16.37
2018-11-11T10:40:57.717Z,16.45
2018-11-11T10:42:07.195Z,16.48
2018-11-11T10:43:23.180Z,16.53
2018-11-11T10:44:35.217Z,16.58
2018-11-11T10:45:45.749Z,16.63
2018-11-11T10:46:53.935Z,16.69
2018-11-11T10:48:02.126Z,16.73
2018-11-11T10:49:07.353Z,16.77
2018-11-11T10:50:16.376Z,16.82
2018-11-11T10:51:20.447Z,16.86
2018-11-11T10:52:24.584Z,16.88
2018-11-11T10:53:29.169Z,16.90
2018-11-11T10:54:33.662Z,16.91
2018-11-11T10:55:37.715Z,16.93
2018-11-11T10:56:41.752Z,16.94
2018-11-11T10:57:49.268Z,16.93
2018-11-11T10:58:53.363Z,16.93
2018-11-11T10:59:57.484Z,16.94
2018-11-11T11:01:06.934Z,16.95
2018-11-11T11:02:16.471Z,16.95
2018-11-11T11:03:26.261Z,16.94
2018-11-11T11:04:30.614Z,16.94
2018-11-11T11:05:34.749Z,16.94
2018-11-11T11:06:44.292Z,16.93
2018-11-11T11:07:48.482Z,16.92
2018-11-11T11:08:57.919Z,16.93
2018-11-11T11:10:02.027Z,16.92
2018-11-11T11:11:06.188Z,16.92
2018-11-11T11:12:10.574Z,16.92
2018-11-11T11:13:14.616Z,16.91
2018-11-11T11:14:19.555Z,16.92
2018-11-11T11:15:23.710Z,16.90
2018-11-11T11:16:27.851Z,16.90
2018-11-11T11:17:32.005Z,16.91
2018-11-11T11:18:36.108Z,16.93
2018-11-11T11:19:40.324Z,16.94
2018-11-11T11:20:44.558Z,16.94
2018-11-11T11:21:48.733Z,16.96
2018-11-11T11:22:52.913Z,16.99
2018-11-11T11:23:56.968Z,17.01
2018-11-11T11:25:01.036Z,17.03
2018-11-11T11:26:05.151Z,17.06
2018-11-11T11:27:09.375Z,17.06
2018-11-11T11:28:13.805Z,17.09
2018-11-11T11:29:18.012Z,17.10
2018-11-11T11:30:22.272Z,17.12
2018-11-11T11:31:26.471Z,17.12
2018-11-11T11:32:30.519Z,17.13
2018-11-11T11:33:34.859Z,17.11
2018-11-11T11:34:39.111Z,17.10
2018-11-11T11:35:43.479Z,17.10
2018-11-11T11:36:47.590Z,17.09
2018-11-11T11:37:51.664Z,17.08
2018-11-11T11:38:55.786Z,17.08
2018-11-11T11:39:59.962Z,17.05
2018-11-11T11:41:04.122Z,17.05
2018-11-11T11:42:08.269Z,17.06
2018-11-11T11:43:12.415Z,17.07
2018-11-11T11:44:16.868Z,17.07
2018-11-11T11:45:21.043Z,17.09
2018-11-11T11:46:25.172Z,17.09
2018-11-11T11:47:29.323Z,17.09
2018-11-11T11:48:33.370Z,17.11
2018-11-11T11:49:37.504Z,17.10
2018-11-11T11:50:41.552Z,17.09
2018-11-11T11:51:45.676Z,17.10
2018-11-11T11:52:49.792Z,17.09
2018-11-11T11:53:53.963Z,17.07
2018-11-11T11:54:58.074Z,17.07
2018-11-11T11:56:02.107Z,17.07
2018-11-11T11:57:06.372Z,17.05
2018-11-11T11:58:17.565Z,17.03
2018-11-11T11:59:21.740Z,17.02
2018-11-11T12:00:25.811Z,17.01
2018-11-11T12:01:29.951Z,17.00
2018-11-11T12:02:34.344Z,17.02
2018-11-11T12:03:38.518Z,17.00
2018-11-11T12:04:43.192Z,17.02
2018-11-11T12:05:47.452Z,17.02
2018-11-11T12:06:51.729Z,17.03
2018-11-11T12:07:55.832Z,17.04
2018-11-11T12:09:00.105Z,17.04
2018-11-11T12:10:04.547Z,17.04
2018-11-11T12:11:08.658Z,17.05
2018-11-11T12:12:12.711Z,17.08
2018-11-11T12:13:17.377Z,17.10
2018-11-11T12:14:21.425Z,17.12
2018-11-11T12:15:25.474Z,17.14
2018-11-11T12:16:29.745Z,17.13
2018-11-11T12:17:33.864Z,17.14
2018-11-11T12:18:38.329Z,17.14
2018-11-11T12:19:42.659Z,17.15
2018-11-11T12:20:46.683Z,17.15
2018-11-11T12:21:50.760Z,17.17
2018-11-11T12:22:54.940Z,17.16
2018-11-11T12:23:59.202Z,17.15
2018-11-11T12:25:03.235Z,17.15
2018-11-11T12:26:07.589Z,17.14
2018-11-11T12:27:11.694Z,17.11
2018-11-11T12:28:15.778Z,17.09
2018-11-11T12:29:20.004Z,17.08
2018-11-11T12:30:24.331Z,17.05
2018-11-11T12:31:28.448Z,17.05
2018-11-11T12:32:32.487Z,17.03
2018-11-11T12:33:36.694Z,17.00
2018-11-11T12:34:40.890Z,17.00
2018-11-11T12:35:45.009Z,16.99
2018-11-11T12:36:49.126Z,16.99
2018-11-11T12:37:53.272Z,16.98
2018-11-11T12:38:57.487Z,16.96
2018-11-11T12:40:01.565Z,16.95
2018-11-11T12:41:05.963Z,16.94
2018-11-11T12:42:10.016Z,16.94
2018-11-11T12:43:14.207Z,16.93
2018-11-11T12:44:24.932Z,16.91
2018-11-11T12:45:28.999Z,16.91
2018-11-11T12:46:33.224Z,16.89
2018-11-11T12:47:37.355Z,16.89
2018-11-11T12:48:41.409Z,16.87
2018-11-11T12:49:45.675Z,16.87
2018-11-11T12:50:49.788Z,16.86
2018-11-11T12:51:53.847Z,16.84
2018-11-11T12:52:57.946Z,16.83
2018-11-11T12:54:02.044Z,16.81
2018-11-11T12:55:06.260Z,16.78
2018-11-11T12:56:10.476Z,16.77
2018-11-11T12:57:14.653Z,16.75
2018-11-11T12:58:18.861Z,16.72
2018-11-11T12:59:22.873Z,16.72
2018-11-11T13:00:27.201Z,16.70
2018-11-11T13:01:31.319Z,16.68
2018-11-11T13:02:35.863Z,16.67
2018-11-11T13:03:39.988Z,16.64
2018-11-11T13:04:44.440Z,16.62
2018-11-11T13:05:48.591Z,16.61
2018-11-11T13:06:52.690Z,16.61
2018-11-11T13:07:56.934Z,16.59
2018-11-11T13:09:00.957Z,16.57
2018-11-11T13:10:07.093Z,16.55
2018-11-11T13:11:11.153Z,16.53
2018-11-11T13:12:15.401Z,16.53
2018-11-11T13:13:19.447Z,16.51
2018-11-11T13:14:23.501Z,16.51
2018-11-11T13:15:27.521Z,16.51
2018-11-11T13:16:31.712Z,16.50
2018-11-11T13:17:36.031Z,16.50
2018-11-11T13:18:40.173Z,16.49
2018-11-11T13:19:44.425Z,16.49
2018-11-11T13:20:48.621Z,16.50
2018-11-11T13:21:52.931Z,16.50
2018-11-11T13:22:57.351Z,16.49
2018-11-11T13:24:01.352Z,16.49
2018-11-11T13:25:06.641Z,16.48
2018-11-11T13:26:10.771Z,16.46
2018-11-11T13:27:15.773Z,16.48
2018-11-11T13:28:19.880Z,16.46
2018-11-11T13:29:24.031Z,16.45
2018-11-11T13:30:28.455Z,16.44
2018-11-11T13:31:32.634Z,16.45
2018-11-11T13:32:37.483Z,16.42
2018-11-11T13:33:41.668Z,16.41
2018-11-11T13:34:47.545Z,16.41
2018-11-11T13:35:52.700Z,16.39
2018-11-11T13:36:57.577Z,16.38
2018-11-11T13:38:02.416Z,16.36
2018-11-11T13:39:09.399Z,16.35
2018-11-11T13:40:15.572Z,16.32
2018-11-11T13:41:19.716Z,16.30
2018-11-11T13:42:23.756Z,16.29
2018-11-11T13:43:27.889Z,16.29
2018-11-11T13:44:32.007Z,16.28
2018-11-11T13:45:36.040Z,16.27
2018-11-11T13:46:40.434Z,16.26
2018-11-11T13:47:45.383Z,16.25
2018-11-11T13:48:49.501Z,16.26
2018-11-11T13:49:53.708Z,16.26
2018-11-11T13:50:57.771Z,16.25
2018-11-11T13:52:01.864Z,16.25
2018-11-11T13:53:06.148Z,16.24
2018-11-11T13:54:10.297Z,16.22
2018-11-11T13:55:14.946Z,16.20
2018-11-11T13:56:19.881Z,16.20
2018-11-11T13:57:23.925Z,16.19
2018-11-11T13:58:28.041Z,16.16